Time;durP1;ratioP1;P1;durP2;ratioP2;P2;SDS_P1;SDS_P2;PMS_P1;PMS_P2;Temp;Humidity;BMP_temperature;BMP_pressure;BME280_temperature;BME280_humidity;BME280_pressure;Samples;Min_cycle;Max_cycle;Signal;HPM_P1;HPM_P2
2021/08/23 00:02:26;;;;;;;2.53;1.80;;;17.80;99.90;;;;;;6229934;28;20188;-79
2021/08/23 00:05:28;;;;;;;2.57;1.87;;;17.70;99.90;;;;;;6235363;28;20197;-79
2021/08/23 00:08:31;;;;;;;2.63;1.70;;;17.70;99.90;;;;;;6244820;28;20734;-79
2021/08/23 00:11:33;;;;;;;2.20;2.00;;;17.70;99.90;;;;;;6229503;28;20216;-79
2021/08/23 00:14:36;;;;;;;2.00;1.73;;;17.70;99.90;;;;;;6245626;28;20266;-79
2021/08/23 00:17:38;;;;;;;3.73;1.90;;;17.70;99.90;;;;;;6205564;28;20224;-78
2021/08/23 00:20:44;;;;;;;3.00;2.03;;;17.70;99.90;;;;;;6243021;28;20196;-79
2021/08/23 00:23:52;;;;;;;3.27;2.03;;;17.60;99.90;;;;;;6246707;28;20195;-78
2021/08/23 00:26:58;;;;;;;3.70;2.20;;;17.60;99.90;;;;;;6229714;28;20546;-79
2021/08/23 00:30:00;;;;;;;1.80;1.53;;;17.60;99.90;;;;;;6228951;28;20660;-80
2021/08/23 00:33:03;;;;;;;2.13;1.93;;;17.50;99.90;;;;;;6245610;28;20196;-79
2021/08/23 00:36:05;;;;;;;2.60;1.90;;;17.50;99.90;;;;;;6245317;28;20680;-79
2021/08/23 00:39:09;;;;;;;2.10;1.70;;;17.40;99.90;;;;;;6246525;28;20199;-78
2021/08/23 00:42:12;;;;;;;1.50;1.40;;;17.40;99.90;;;;;;6246637;28;20271;-78
2021/08/23 00:45:14;;;;;;;1.53;1.43;;;17.40;99.90;;;;;;6245281;28;20200;-78
2021/08/23 00:48:16;;;;;;;2.17;1.70;;;17.30;99.90;;;;;;6228773;28;20685;-78
2021/08/23 00:51:20;;;;;;;1.47;1.37;;;17.30;99.90;;;;;;6245468;28;20281;-78
2021/08/23 00:54:22;;;;;;;1.60;1.20;;;17.30;99.90;;;;;;6246432;28;20247;-79
2021/08/23 00:57:25;;;;;;;1.87;1.40;;;17.20;99.90;;;;;;6246716;28;20187;-78
2021/08/23 01:00:31;;;;;;;1.43;1.33;;;17.30;99.90;;;;;;6246779;28;20242;-78
2021/08/23 01:03:47;;;;;;;1.40;1.20;;;17.20;99.90;;;;;;6245023;28;20192;-78
2021/08/23 01:06:50;;;;;;;1.97;1.70;;;17.20;99.90;;;;;;6244908;28;20649;-78
2021/08/23 01:09:57;;;;;;;1.60;1.50;;;17.20;99.90;;;;;;6244920;28;20200;-78
2021/08/23 01:13:01;;;;;;;1.63;1.33;;;17.20;99.90;;;;;;6244853;28;20232;-78
2021/08/23 01:16:03;;;;;;;1.87;1.63;;;17.20;99.90;;;;;;6244738;28;20687;-78
2021/08/23 01:19:08;;;;;;;2.67;1.40;;;17.20;99.90;;;;;;6228684;28;20681;-78
2021/08/23 01:22:12;;;;;;;1.73;1.63;;;17.20;99.90;;;;;;6244481;28;20206;-78
2021/08/23 01:25:20;;;;;;;1.40;1.30;;;17.20;99.90;;;;;;6244807;28;20278;-78
2021/08/23 01:28:54;;;;;;;2.37;1.30;;;17.20;99.90;;;;;;6246070;28;20203;-78
2021/08/23 01:31:56;;;;;;;1.90;1.30;;;17.10;99.90;;;;;;6218344;28;20207;-78
2021/08/23 01:35:01;;;;;;;1.50;1.40;;;17.10;99.90;;;;;;6245013;28;20217;-78
2021/08/23 01:38:04;;;;;;;2.90;1.33;;;17.10;99.90;;;;;;6245948;28;20196;-78
2021/08/23 01:41:08;;;;;;;2.27;1.67;;;17.00;99.90;;;;;;6245852;28;20183;-78
2021/08/23 01:44:11;;;;;;;3.80;1.33;;;17.00;99.90;;;;;;6228077;28;20206;-78
2021/08/23 01:47:13;;;;;;;1.30;1.20;;;17.00;99.90;;;;;;6244670;28;20536;-77
2021/08/23 01:50:16;;;;;;;2.07;1.60;;;17.00;99.90;;;;;;6243901;28;20208;-78
2021/08/23 01:53:19;;;;;;;1.50;1.40;;;17.00;99.90;;;;;;6228260;28;20192;-78
2021/08/23 01:56:29;;;;;;;1.77;1.30;;;17.00;99.90;;;;;;6245569;28;20239;-78
2021/08/23 01:59:31;;;;;;;1.90;1.60;;;16.90;99.90;;;;;;6243967;28;20660;-78
2021/08/23 02:02:34;;;;;;;1.73;1.60;;;16.90;99.90;;;;;;6228202;28;20203;-78
2021/08/23 02:05:36;;;;;;;2.27;1.40;;;16.90;99.90;;;;;;6243750;28;20342;-78
2021/08/23 02:08:39;;;;;;;1.50;1.30;;;16.90;99.90;;;;;;6245543;28;20278;-79
2021/08/23 02:11:41;;;;;;;1.93;1.63;;;17.00;99.90;;;;;;6245663;28;20569;-78
2021/08/23 02:14:44;;;;;;;2.60;1.60;;;17.00;99.90;;;;;;6227513;28;20240;-78
2021/08/23 02:17:46;;;;;;;2.50;1.27;;;17.00;99.90;;;;;;6244177;28;20206;-78
2021/08/23 02:20:49;;;;;;;1.20;1.10;;;17.00;99.90;;;;;;6243917;28;20262;-78
2021/08/23 02:23:52;;;;;;;1.47;1.37;;;17.00;99.90;;;;;;6244084;28;20188;-78
2021/08/23 02:26:55;;;;;;;1.60;1.50;;;17.00;99.90;;;;;;6234343;28;20200;-78
2021/08/23 02:29:57;;;;;;;2.10;1.80;;;16.90;99.90;;;;;;6231402;28;20192;-77
2021/08/23 02:33:00;;;;;;;2.83;1.80;;;16.90;99.90;;;;;;6248613;28;20531;-78
2021/08/23 02:36:03;;;;;;;2.30;1.67;;;17.00;99.90;;;;;;6247983;28;20627;-78
2021/08/23 02:39:05;;;;;;;2.53;1.90;;;17.00;99.90;;;;;;6248564;28;20667;-79
2021/08/23 02:42:08;;;;;;;2.20;2.00;;;17.00;99.90;;;;;;6247987;28;20207;-78
2021/08/23 02:45:11;;;;;;;2.23;2.03;;;16.90;99.90;;;;;;6232196;28;20207;-79
2021/08/23 02:48:13;;;;;;;2.97;2.40;;;17.00;99.90;;;;;;6248224;28;20231;-78
2021/08/23 02:51:15;;;;;;;2.80;2.40;;;17.00;99.90;;;;;;6247766;28;20203;-78
2021/08/23 02:54:18;;;;;;;2.60;2.23;;;16.90;99.90;;;;;;6249301;28;20235;-78
2021/08/23 02:57:20;;;;;;;2.27;2.07;;;16.90;99.90;;;;;;6231387;28;20216;-78
2021/08/23 03:00:22;;;;;;;2.97;2.47;;;16.90;99.90;;;;;;6247812;28;20731;-79
2021/08/23 03:03:25;;;;;;;3.60;2.93;;;16.90;99.90;;;;;;6231298;28;20200;-79
2021/08/23 03:06:27;;;;;;;3.63;2.57;;;16.80;99.90;;;;;;6224450;28;20196;-78
2021/08/23 03:09:29;;;;;;;3.97;2.63;;;16.80;99.90;;;;;;6246159;28;20555;-79
2021/08/23 03:12:32;;;;;;;3.93;2.60;;;16.80;99.90;;;;;;6222857;28;20232;-79
2021/08/23 03:15:34;;;;;;;3.47;2.67;;;16.80;99.90;;;;;;6247156;28;20231;-79
2021/08/23 03:18:37;;;;;;;3.23;2.60;;;16.70;99.90;;;;;;6235893;28;20291;-79
2021/08/23 03:21:40;;;;;;;3.07;2.87;;;16.70;99.90;;;;;;6223073;28;20193;-80
2021/08/23 03:24:42;;;;;;;3.43;2.77;;;16.70;99.90;;;;;;6223112;28;20606;-78
2021/08/23 03:27:44;;;;;;;3.03;2.57;;;16.70;99.90;;;;;;6222707;28;20192;-79
2021/08/23 03:30:48;;;;;;;3.17;2.10;;;16.70;99.90;;;;;;6206846;28;20313;-79
2021/08/23 03:33:50;;;;;;;2.77;2.37;;;16.70;99.90;;;;;;6232489;28;20609;-78
2021/08/23 03:36:52;;;;;;;2.70;2.47;;;16.70;99.90;;;;;;6230826;28;20208;-78
2021/08/23 03:39:55;;;;;;;3.23;2.20;;;16.60;99.90;;;;;;6248359;28;20211;-78
2021/08/23 03:42:58;;;;;;;2.87;2.57;;;16.60;99.90;;;;;;6246902;28;20192;-78
2021/08/23 03:46:00;;;;;;;2.83;2.03;;;16.60;99.90;;;;;;6248204;28;20756;-78
2021/08/23 03:49:04;;;;;;;3.13;2.10;;;16.60;99.90;;;;;;6246507;28;20579;-78
2021/08/23 03:52:06;;;;;;;4.00;1.90;;;16.60;99.90;;;;;;6248073;28;20199;-79
2021/08/23 03:55:09;;;;;;;3.07;2.30;;;16.60;99.90;;;;;;6248272;28;20753;-78
2021/08/23 03:58:12;;;;;;;2.00;1.70;;;16.60;99.90;;;;;;6230339;28;20204;-78
2021/08/23 04:01:14;;;;;;;2.90;2.60;;;16.50;99.90;;;;;;6246468;28;20204;-78
2021/08/23 04:04:17;;;;;;;4.13;2.53;;;16.50;99.90;;;;;;6262609;28;20184;-77
2021/08/23 04:07:20;;;;;;;2.47;2.13;;;16.50;99.90;;;;;;6247863;28;20196;-78
2021/08/23 04:10:22;;;;;;;2.33;1.97;;;16.40;99.90;;;;;;6246411;28;20199;-77
2021/08/23 04:13:24;;;;;;;2.87;2.20;;;16.40;99.90;;;;;;6237739;28;20236;-78
2021/08/23 04:16:27;;;;;;;2.47;2.20;;;16.30;99.90;;;;;;6229130;28;20283;-78
2021/08/23 04:19:30;;;;;;;2.50;1.97;;;16.30;99.90;;;;;;6229602;28;20198;-77
2021/08/23 04:22:33;;;;;;;3.40;2.10;;;16.30;99.90;;;;;;6262780;28;20204;-78
2021/08/23 04:25:35;;;;;;;2.20;2.00;;;16.30;99.90;;;;;;6229568;28;20200;-78
2021/08/23 04:28:39;;;;;;;3.47;1.83;;;16.30;99.90;;;;;;6245830;28;20716;-77
2021/08/23 04:31:42;;;;;;;4.83;2.03;;;16.30;99.90;;;;;;6229669;28;20192;-77
2021/08/23 04:34:44;;;;;;;3.83;2.10;;;16.20;99.90;;;;;;6230769;28;20222;-78
2021/08/23 04:37:47;;;;;;;2.27;2.07;;;16.20;99.90;;;;;;6245791;28;20200;-77
2021/08/23 04:40:50;;;;;;;2.10;1.87;;;16.20;99.90;;;;;;6254356;28;20204;-77
2021/08/23 04:43:53;;;;;;;2.33;2.07;;;16.20;99.90;;;;;;6226996;28;20192;-77
2021/08/23 04:46:55;;;;;;;2.40;2.10;;;16.10;99.90;;;;;;6229513;28;20219;-77
2021/08/23 04:49:58;;;;;;;2.10;1.87;;;16.10;99.90;;;;;;6228420;28;20196;-76
2021/08/23 04:53:00;;;;;;;2.40;2.13;;;16.10;99.90;;;;;;6229273;28;20230;-77
2021/08/23 04:56:08;;;;;;;2.60;1.97;;;16.10;99.90;;;;;;6228342;28;20212;-78
2021/08/23 04:59:10;;;;;;;4.80;1.97;;;16.10;99.90;;;;;;6246390;28;20204;-77
2021/08/23 05:02:13;;;;;;;2.37;1.90;;;16.10;99.90;;;;;;6213978;28;20735;-76
2021/08/23 05:05:17;;;;;;;3.23;2.07;;;16.10;99.90;;;;;;6258303;28;20608;-76
2021/08/23 05:08:20;;;;;;;1.83;1.70;;;16.10;99.90;;;;;;6246233;28;20552;-79
2021/08/23 05:11:22;;;;;;;1.70;1.60;;;16.10;99.90;;;;;;6244624;28;20675;-78
2021/08/23 05:14:25;;;;;;;2.03;1.83;;;16.10;99.90;;;;;;6245782;28;20350;-78
2021/08/23 05:17:27;;;;;;;1.93;1.70;;;16.10;99.90;;;;;;6245397;28;20342;-77
2021/08/23 05:20:29;;;;;;;1.97;1.83;;;16.00;99.90;;;;;;6227886;28;20210;-76
2021/08/23 05:23:31;;;;;;;1.93;1.50;;;16.00;99.90;;;;;;6244580;28;20664;-76
2021/08/23 05:26:37;;;;;;;1.97;1.60;;;16.10;99.90;;;;;;6245549;28;20203;-77
2021/08/23 05:29:40;;;;;;;3.43;1.90;;;16.10;99.90;;;;;;6244387;28;20267;-76
2021/08/23 05:32:42;;;;;;;2.20;1.93;;;16.10;99.90;;;;;;6228247;28;20820;-75
2021/08/23 05:35:44;;;;;;;2.87;2.00;;;16.00;99.90;;;;;;6245747;28;20208;-77
2021/08/23 05:38:48;;;;;;;2.13;1.80;;;16.00;99.90;;;;;;6244156;28;20199;-77
2021/08/23 05:41:50;;;;;;;1.97;1.70;;;16.10;99.90;;;;;;6227911;28;20254;-78
2021/08/23 05:44:54;;;;;;;1.93;1.70;;;16.10;99.90;;;;;;6220962;28;20604;-78
2021/08/23 05:47:56;;;;;;;3.67;1.60;;;16.00;99.90;;;;;;6239805;28;20208;-77
2021/08/23 05:50:58;;;;;;;4.53;1.83;;;16.10;99.90;;;;;;6242963;28;20690;-77
2021/08/23 05:54:01;;;;;;;3.33;1.50;;;16.10;99.90;;;;;;6244635;28;20630;-77
2021/08/23 05:57:03;;;;;;;1.73;1.57;;;16.10;99.90;;;;;;6244361;28;20212;-77
2021/08/23 06:00:08;;;;;;;1.87;1.77;;;16.10;99.90;;;;;;6227969;28;20694;-76
2021/08/23 06:03:16;;;;;;;3.87;2.03;;;16.00;99.90;;;;;;6262854;28;20487;-75
2021/08/23 06:06:18;;;;;;;2.13;1.67;;;16.00;99.90;;;;;;6249025;28;20565;-74
2021/08/23 06:09:21;;;;;;;1.87;1.77;;;16.00;99.90;;;;;;6249781;28;20681;-74
2021/08/23 06:12:24;;;;;;;3.73;2.10;;;16.00;99.90;;;;;;6248392;28;20247;-77
2021/08/23 06:15:27;;;;;;;4.70;2.37;;;16.00;99.90;;;;;;6249891;28;20721;-76
2021/08/23 06:18:29;;;;;;;5.47;2.20;;;16.00;99.90;;;;;;6232036;28;20204;-76
2021/08/23 06:21:34;;;;;;;2.70;2.30;;;16.00;99.90;;;;;;6249917;28;20645;-77
2021/08/23 06:24:36;;;;;;;5.13;2.10;;;16.10;99.90;;;;;;6248137;28;20287;-75
2021/08/23 06:27:38;;;;;;;2.23;1.97;;;16.00;99.90;;;;;;6249598;28;20859;-76
2021/08/23 06:30:41;;;;;;;2.83;2.20;;;16.10;99.90;;;;;;6248139;28;20196;-76
2021/08/23 06:33:43;;;;;;;3.63;2.53;;;16.00;99.90;;;;;;6224801;28;20201;-76
2021/08/23 06:36:45;;;;;;;3.40;2.03;;;16.10;99.90;;;;;;6231865;28;20764;-76
2021/08/23 06:39:48;;;;;;;4.23;2.13;;;16.20;99.90;;;;;;6248980;28;20227;-76
2021/08/23 06:42:50;;;;;;;2.10;1.70;;;16.30;99.90;;;;;;6239929;28;20215;-75
2021/08/23 06:45:53;;;;;;;4.57;3.27;;;16.30;99.90;;;;;;6255930;28;20200;-76
2021/08/23 06:48:55;;;;;;;3.43;2.23;;;16.40;99.90;;;;;;6264117;28;20195;-76
2021/08/23 06:51:57;;;;;;;2.80;2.13;;;16.40;99.90;;;;;;6249088;28;20884;-76
2021/08/23 06:55:00;;;;;;;2.10;1.90;;;16.40;99.90;;;;;;6231054;28;20262;-76
2021/08/23 06:58:02;;;;;;;2.50;2.17;;;16.50;99.90;;;;;;6230891;28;20719;-76
2021/08/23 07:01:05;;;;;;;2.73;2.20;;;16.60;99.90;;;;;;6263740;28;20252;-75
2021/08/23 07:04:08;;;;;;;4.00;2.50;;;16.80;99.90;;;;;;6231000;28;20464;-75
2021/08/23 07:07:10;;;;;;;2.70;2.50;;;16.90;99.90;;;;;;6239107;28;20227;-74
2021/08/23 07:10:13;;;;;;;2.60;2.40;;;17.00;99.90;;;;;;6239916;28;20192;-76
2021/08/23 07:13:15;;;;;;;3.07;2.57;;;17.00;99.90;;;;;;6230125;28;20722;-76
2021/08/23 07:16:18;;;;;;;2.80;2.60;;;17.00;99.90;;;;;;6246568;28;20204;-76
2021/08/23 07:19:20;;;;;;;3.53;3.03;;;16.80;99.90;;;;;;6245781;28;20191;-77
2021/08/23 07:22:23;;;;;;;2.97;2.63;;;16.80;99.90;;;;;;6263062;28;20278;-77
2021/08/23 07:25:25;;;;;;;5.00;3.50;;;16.80;99.90;;;;;;6262644;28;20192;-77
2021/08/23 07:28:28;;;;;;;5.50;3.10;;;16.80;99.90;;;;;;6248520;28;20270;-76
2021/08/23 07:31:33;;;;;;;3.23;2.93;;;16.80;99.90;;;;;;6248182;28;20275;-76
2021/08/23 07:34:36;;;;;;;4.23;2.83;;;16.80;99.90;;;;;;6246759;28;20193;-77
2021/08/23 07:37:48;;;;;;;3.17;2.87;;;17.00;99.90;;;;;;6246505;28;20589;-76
2021/08/23 07:40:52;;;;;;;3.10;2.80;;;17.20;99.90;;;;;;6245140;28;20193;-77
2021/08/23 07:43:55;;;;;;;3.47;2.53;;;17.40;99.90;;;;;;6262965;28;20584;-77
2021/08/23 07:46:58;;;;;;;2.40;2.17;;;17.60;99.90;;;;;;6246158;28;20216;-77
2021/08/23 07:50:01;;;;;;;3.77;2.77;;;17.70;99.90;;;;;;6246036;28;20199;-76
2021/08/23 07:53:04;;;;;;;2.90;2.47;;;17.90;99.90;;;;;;6246079;28;20184;-77
2021/08/23 07:56:07;;;;;;;4.03;2.60;;;18.30;99.90;;;;;;6246534;28;20301;-75
2021/08/23 07:59:09;;;;;;;2.63;2.27;;;18.80;99.90;;;;;;6245817;28;20215;-77
2021/08/23 08:02:12;;;;;;;2.77;2.40;;;19.30;99.90;;;;;;6229090;28;20213;-76
2021/08/23 08:05:14;;;;;;;1.90;1.80;;;19.80;99.90;;;;;;6246146;28;20203;-76
2021/08/23 08:08:17;;;;;;;2.80;2.30;;;20.10;99.90;;;;;;6247144;28;20188;-76
2021/08/23 08:11:20;;;;;;;3.30;2.60;;;20.30;99.90;;;;;;6246832;28;20563;-76
2021/08/23 08:14:23;;;;;;;4.03;2.47;;;20.20;99.90;;;;;;6246714;28;20615;-76
2021/08/23 08:17:26;;;;;;;3.43;2.20;;;20.00;99.90;;;;;;6228172;28;20250;-75
2021/08/23 08:20:28;;;;;;;3.77;2.50;;;20.00;99.90;;;;;;6246719;28;20675;-76
2021/08/23 08:23:31;;;;;;;2.70;2.50;;;20.40;99.90;;;;;;6244262;28;20187;-76
2021/08/23 08:26:33;;;;;;;5.27;2.37;;;20.80;99.90;;;;;;6227678;28;20204;-75
2021/08/23 08:29:36;;;;;;;4.67;2.17;;;21.10;99.90;;;;;;6244619;28;20204;-76
2021/08/23 08:32:39;;;;;;;4.17;2.10;;;21.40;99.90;;;;;;6243316;28;20203;-75
2021/08/23 08:35:43;;;;;;;3.10;2.03;;;21.90;99.90;;;;;;6242555;28;20242;-76
2021/08/23 08:38:48;;;;;;;2.30;2.10;;;22.20;99.90;;;;;;6244671;28;20200;-76
2021/08/23 08:41:51;;;;;;;4.00;1.97;;;22.40;99.90;;;;;;6244522;28;20219;-76
2021/08/23 08:44:53;;;;;;;2.47;2.13;;;22.60;99.90;;;;;;6228428;28;20230;-77
2021/08/23 08:48:02;;;;;;;2.43;1.87;;;22.70;99.90;;;;;;6245307;28;20200;-76
2021/08/23 08:51:04;;;;;;;2.73;1.90;;;22.70;99.90;;;;;;6228339;28;20443;-77
2021/08/23 08:54:11;;;;;;;2.70;2.17;;;22.90;99.90;;;;;;6244520;28;20640;-77
2021/08/23 08:57:15;;;;;;;2.20;1.80;;;23.00;99.90;;;;;;6261266;28;20554;-76
2021/08/23 09:00:18;;;;;;;2.77;2.07;;;23.00;99.90;;;;;;6227862;28;20562;-76
2021/08/23 09:03:27;;;;;;;3.37;2.10;;;23.10;99.90;;;;;;6228315;28;20188;-77
2021/08/23 09:06:40;;;;;;;2.87;2.03;;;23.30;99.90;;;;;;6245083;28;20192;-76
2021/08/23 09:09:45;;;;;;;2.80;1.90;;;23.30;99.60;;;;;;6244610;28;20668;-76
2021/08/23 09:13:03;;;;;;;3.00;2.03;;;23.40;99.10;;;;;;6245957;28;20254;-76
2021/08/23 09:16:07;;;;;;;2.83;1.70;;;23.50;99.40;;;;;;6227816;28;20220;-77
2021/08/23 09:19:25;;;;;;;2.23;1.80;;;23.70;98.60;;;;;;6244197;28;20331;-78
2021/08/23 09:22:28;;;;;;;3.50;1.90;;;23.60;99.30;;;;;;6243475;28;20231;-76
2021/08/23 09:25:30;;;;;;;5.67;2.23;;;23.80;99.20;;;;;;6244904;28;20261;-76
2021/08/23 09:28:33;;;;;;;3.07;1.90;;;24.20;98.50;;;;;;6245003;28;20191;-76
2021/08/23 09:31:38;;;;;;;3.03;2.00;;;24.40;97.20;;;;;;6243649;28;20361;-76
2021/08/23 09:34:45;;;;;;;3.27;1.87;;;24.60;96.50;;;;;;6260489;28;20192;-76
2021/08/23 09:37:49;;;;;;;2.10;1.90;;;24.60;96.20;;;;;;6230633;28;20299;-75
2021/08/23 09:41:04;;;;;;;3.20;2.00;;;24.50;95.90;;;;;;6248515;28;20261;-76
2021/08/23 09:44:08;;;;;;;2.10;1.83;;;24.60;96.10;;;;;;6248751;28;20203;-75
2021/08/23 09:47:10;;;;;;;2.13;1.90;;;24.50;94.40;;;;;;6237050;28;20218;-75
2021/08/23 09:50:17;;;;;;;3.07;1.90;;;24.50;93.60;;;;;;6249470;28;20246;-74
2021/08/23 09:53:20;;;;;;;4.73;2.20;;;24.70;93.70;;;;;;6248428;28;20294;-75
2021/08/23 09:56:23;;;;;;;2.20;2.00;;;24.90;93.20;;;;;;6249251;28;20290;-74
2021/08/23 09:59:28;;;;;;;2.80;1.77;;;24.90;92.30;;;;;;6248851;28;20284;-75
2021/08/23 10:02:30;;;;;;;3.20;1.93;;;25.20;92.50;;;;;;6224655;28;20287;-74
2021/08/23 10:05:33;;;;;;;4.23;2.33;;;25.40;90.30;;;;;;6250954;28;20663;-75
2021/08/23 10:08:35;;;;;;;5.60;1.80;;;25.50;89.40;;;;;;6250779;28;20210;-75
2021/08/23 10:11:38;;;;;;;2.63;1.87;;;25.50;90.00;;;;;;6248425;28;20323;-75
2021/08/23 10:14:42;;;;;;;2.00;1.80;;;25.10;88.00;;;;;;6247820;28;20224;-76
2021/08/23 10:17:45;;;;;;;1.90;1.70;;;25.00;91.20;;;;;;6264815;28;20309;-77
2021/08/23 10:20:47;;;;;;;3.33;2.00;;;24.90;90.80;;;;;;6249217;28;20199;-75
2021/08/23 10:23:51;;;;;;;5.67;2.07;;;24.80;91.40;;;;;;6249381;28;20191;-76
2021/08/23 10:26:54;;;;;;;2.20;1.80;;;24.90;91.20;;;;;;6248101;28;20590;-76
2021/08/23 10:29:57;;;;;;;3.33;1.80;;;25.40;90.20;;;;;;6248955;28;20224;-75
2021/08/23 10:33:16;;;;;;;2.97;1.80;;;25.40;90.20;;;;;;6247875;28;20258;-76
2021/08/23 10:36:18;;;;;;;2.43;1.70;;;25.10;88.60;;;;;;6245718;28;20322;-75
2021/08/23 10:39:27;;;;;;;4.10;1.70;;;24.80;87.10;;;;;;6229956;28;20192;-75
2021/08/23 10:42:40;;;;;;;1.77;1.30;;;24.80;89.00;;;;;;6247004;28;20192;-75
2021/08/23 10:45:43;;;;;;;3.17;1.50;;;24.60;87.40;;;;;;6247119;28;20247;-76
2021/08/23 10:48:49;;;;;;;2.13;1.40;;;24.70;89.40;;;;;;6246710;28;20330;-76
2021/08/23 10:51:57;;;;;;;2.20;1.63;;;24.20;83.00;;;;;;6248127;28;20235;-77
2021/08/23 10:55:00;;;;;;;2.07;1.50;;;23.90;86.90;;;;;;6248834;28;20202;-75
2021/08/23 10:58:08;;;;;;;2.13;1.50;;;23.80;89.10;;;;;;6246530;28;20766;-76
2021/08/23 11:01:24;;;;;;;1.27;1.17;;;24.50;90.30;;;;;;6248187;28;20181;-76
2021/08/23 11:04:34;;;;;;;1.80;1.07;;;25.10;86.70;;;;;;6246984;28;20195;-76
2021/08/23 11:07:40;;;;;;;1.60;1.50;;;25.30;85.90;;;;;;6245231;28;20192;-75
2021/08/23 11:10:42;;;;;;;1.50;1.25;;;25.20;86.40;;;;;;6230388;28;20663;-77
2021/08/23 11:13:45;;;;;;;1.87;1.47;;;25.00;86.80;;;;;;6246965;28;20702;-75
2021/08/23 11:16:55;;;;;;;3.93;1.47;;;24.90;88.70;;;;;;6248146;28;20207;-74
2021/08/23 11:20:06;;;;;;;2.67;1.60;;;24.90;89.00;;;;;;6247950;28;20180;-77
2021/08/23 11:23:11;;;;;;;1.85;1.50;;;25.00;89.90;;;;;;6248194;28;20541;-75
2021/08/23 11:26:25;;;;;;;2.40;1.52;;;25.30;88.90;;;;;;6261849;28;20189;-75
2021/08/23 11:29:29;;;;;;;1.30;1.20;;;25.80;86.70;;;;;;6246118;28;20691;-75
2021/08/23 11:32:31;;;;;;;1.52;1.30;;;26.10;83.90;;;;;;6230168;28;20196;-75
2021/08/23 11:35:34;;;;;;;1.50;1.35;;;25.90;81.40;;;;;;6246732;28;20265;-75
2021/08/23 11:38:38;;;;;;;1.60;1.30;;;25.70;83.30;;;;;;6246502;28;20223;-75
2021/08/23 11:41:40;;;;;;;2.45;1.40;;;25.20;81.60;;;;;;6246569;28;20281;-75
2021/08/23 11:44:48;;;;;;;3.70;1.55;;;25.00;83.30;;;;;;6246048;28;20322;-75
2021/08/23 11:47:51;;;;;;;4.72;1.52;;;25.00;84.80;;;;;;6247477;28;20636;-75
2021/08/23 11:50:54;;;;;;;3.05;1.50;;;25.00;87.70;;;;;;6245679;28;20334;-76
2021/08/23 11:53:57;;;;;;;1.63;1.40;;;25.20;86.80;;;;;;6245890;28;20334;-75
2021/08/23 11:57:05;;;;;;;2.67;1.52;;;25.50;85.60;;;;;;6228982;28;20690;-75
2021/08/23 12:00:08;;;;;;;1.98;1.50;;;25.60;85.00;;;;;;6244889;28;20537;-76
2021/08/23 12:03:15;;;;;;;2.47;1.20;;;25.60;84.00;;;;;;6246581;28;20200;-75
2021/08/23 12:06:18;;;;;;;2.35;1.42;;;26.20;82.00;;;;;;6244984;28;20208;-76
2021/08/23 12:09:20;;;;;;;2.17;1.10;;;27.00;81.30;;;;;;6237683;28;20690;-75
2021/08/23 12:12:22;;;;;;;1.77;1.67;;;27.30;75.40;;;;;;6241727;28;20331;-75
2021/08/23 12:15:25;;;;;;;1.90;1.40;;;27.50;73.90;;;;;;6244966;28;20192;-76
2021/08/23 12:18:47;;;;;;;1.95;1.50;;;27.80;74.90;;;;;;6226809;28;20223;-74
2021/08/23 12:22:00;;;;;;;1.60;1.27;;;27.80;71.40;;;;;;6220165;28;20201;-74
2021/08/23 12:25:03;;;;;;;1.38;1.27;;;27.80;73.60;;;;;;6237124;28;20197;-75
2021/08/23 12:28:15;;;;;;;1.50;1.40;;;28.10;69.90;;;;;;6237132;28;20691;-75
2021/08/23 12:31:18;;;;;;;1.88;1.20;;;28.40;68.90;;;;;;6237131;28;20296;-74
2021/08/23 12:34:27;;;;;;;3.38;1.45;;;28.00;68.50;;;;;;6253797;28;20203;-73
2021/08/23 12:37:31;;;;;;;1.50;1.17;;;27.70;70.50;;;;;;6228998;28;20208;-73
2021/08/23 12:40:34;;;;;;;2.22;1.48;;;27.50;72.80;;;;;;6228725;28;20192;-74
2021/08/23 12:43:38;;;;;;;2.13;1.40;;;27.50;75.30;;;;;;6245465;28;20207;-74
2021/08/23 12:46:41;;;;;;;1.52;1.17;;;28.00;70.20;;;;;;6229818;28;20188;-74
2021/08/23 12:49:49;;;;;;;2.72;1.50;;;28.20;65.80;;;;;;6245360;28;20192;-74
2021/08/23 12:52:52;;;;;;;1.42;1.30;;;28.50;63.50;;;;;;6262119;28;20192;-73
2021/08/23 12:55:55;;;;;;;1.75;1.30;;;28.40;61.50;;;;;;6244530;28;20195;-74
2021/08/23 12:58:57;;;;;;;1.95;1.27;;;28.30;62.60;;;;;;6244941;28;20699;-73
2021/08/23 13:01:59;;;;;;;3.38;1.33;;;28.20;61.90;;;;;;6245518;28;20192;-74
2021/08/23 13:05:02;;;;;;;2.13;1.30;;;28.50;64.00;;;;;;6246397;28;20192;-73
2021/08/23 13:08:04;;;;;;;1.13;1.02;;;28.90;62.50;;;;;;6245358;28;20596;-72
2021/08/23 13:11:08;;;;;;;1.48;0.98;;;29.20;60.50;;;;;;6246526;28;20200;-74
2021/08/23 13:14:10;;;;;;;1.85;1.10;;;29.50;60.70;;;;;;6245308;28;20290;-75
2021/08/23 13:17:15;;;;;;;1.45;1.10;;;29.40;58.10;;;;;;6245876;28;20215;-75
2021/08/23 13:20:17;;;;;;;2.13;1.10;;;29.30;57.50;;;;;;6262565;28;20192;-76
2021/08/23 13:23:20;;;;;;;1.08;0.77;;;29.30;57.90;;;;;;6248984;28;20188;-75
2021/08/23 13:26:22;;;;;;;1.25;0.88;;;29.20;57.50;;;;;;6229060;28;20648;-76
2021/08/23 13:29:25;;;;;;;4.65;1.00;;;29.20;57.70;;;;;;6245217;28;20396;-75
2021/08/23 13:32:27;;;;;;;1.40;0.90;;;29.50;59.70;;;;;;6229483;28;20663;-76
2021/08/23 13:35:35;;;;;;;1.17;1.08;;;30.00;56.90;;;;;;6220461;28;20235;-75
2021/08/23 13:38:38;;;;;;;0.70;0.70;;;30.40;55.90;;;;;;6226353;28;20220;-77
2021/08/23 13:41:40;;;;;;;1.85;0.90;;;30.90;53.40;;;;;;6244382;28;20184;-77
2021/08/23 13:44:43;;;;;;;2.28;0.90;;;31.00;54.00;;;;;;6243378;28;20674;-76
2021/08/23 13:47:45;;;;;;;0.80;0.80;;;31.40;52.10;;;;;;6227354;28;20196;-78
2021/08/23 13:50:48;;;;;;;1.17;0.80;;;32.00;53.20;;;;;;6243913;28;20212;-76
2021/08/23 13:53:50;;;;;;;1.45;0.90;;;32.30;51.50;;;;;;6245515;28;20204;-76
2021/08/23 13:56:54;;;;;;;1.17;0.98;;;32.60;49.40;;;;;;6244335;28;20204;-78
2021/08/23 13:59:56;;;;;;;1.58;0.98;;;32.50;48.30;;;;;;6244459;28;20195;-78
2021/08/23 14:02:59;;;;;;;0.88;0.88;;;32.50;51.10;;;;;;6227028;28;20199;-76
2021/08/23 14:06:02;;;;;;;1.05;0.80;;;33.10;49.40;;;;;;6244495;28;20243;-76
2021/08/23 14:09:04;;;;;;;1.90;1.13;;;33.80;47.80;;;;;;6245318;28;20192;-76
2021/08/23 14:12:06;;;;;;;2.67;1.00;;;34.30;47.40;;;;;;6244469;28;20235;-77
2021/08/23 14:15:11;;;;;;;1.77;0.80;;;34.60;46.20;;;;;;6244043;28;20204;-76
2021/08/23 14:18:13;;;;;;;1.83;0.82;;;34.50;45.10;;;;;;6244918;28;20215;-77
2021/08/23 14:21:16;;;;;;;0.65;0.65;;;33.80;46.10;;;;;;6244903;28;20503;-76
2021/08/23 14:24:18;;;;;;;1.33;0.88;;;33.00;45.50;;;;;;6246177;28;20188;-76
2021/08/23 14:27:20;;;;;;;1.00;0.80;;;32.30;46.30;;;;;;6248107;28;20278;-76
2021/08/23 14:30:23;;;;;;;1.13;0.68;;;31.70;47.20;;;;;;6249639;28;20684;-77
2021/08/23 14:33:25;;;;;;;0.70;0.70;;;31.00;48.80;;;;;;6247791;28;20196;-76
2021/08/23 14:36:27;;;;;;;2.03;0.77;;;31.40;50.30;;;;;;6231917;28;20199;-76
2021/08/23 14:39:30;;;;;;;1.50;0.82;;;32.20;48.50;;;;;;6249227;28;20216;-75
2021/08/23 14:42:32;;;;;;;0.80;0.80;;;32.70;46.90;;;;;;6248751;28;20269;-76
2021/08/23 14:45:35;;;;;;;0.73;0.70;;;32.60;46.60;;;;;;6248471;28;20192;-76
2021/08/23 14:48:40;;;;;;;1.10;0.65;;;32.80;48.10;;;;;;6256335;28;20201;-75
2021/08/23 14:51:42;;;;;;;0.80;0.80;;;33.10;46.80;;;;;;6223427;28;20644;-75
2021/08/23 14:54:45;;;;;;;1.40;0.95;;;33.50;46.20;;;;;;6231476;28;20206;-76
2021/08/23 14:57:47;;;;;;;0.85;0.60;;;33.80;44.60;;;;;;6249184;28;20203;-76
2021/08/23 15:00:49;;;;;;;0.98;0.85;;;33.70;44.80;;;;;;6247916;28;20192;-76
2021/08/23 15:03:52;;;;;;;1.13;0.85;;;34.10;44.30;;;;;;6247569;28;20203;-75
2021/08/23 15:06:54;;;;;;;1.58;0.80;;;34.60;42.90;;;;;;6249245;28;20274;-76
2021/08/23 15:09:57;;;;;;;1.08;0.73;;;35.10;44.10;;;;;;6249137;28;20211;-75
2021/08/23 15:12:59;;;;;;;0.90;0.88;;;35.30;43.90;;;;;;6246991;28;20231;-77
2021/08/23 15:16:03;;;;;;;2.03;0.70;;;35.60;42.60;;;;;;6263595;28;20536;-76
2021/08/23 15:19:05;;;;;;;0.93;0.75;;;35.80;41.40;;;;;;6248044;28;20204;-76
2021/08/23 15:22:07;;;;;;;1.23;0.90;;;35.70;41.40;;;;;;6248267;28;20184;-76
2021/08/23 15:25:10;;;;;;;1.58;0.80;;;35.60;41.50;;;;;;6248027;28;20212;-76
2021/08/23 15:28:12;;;;;;;1.02;0.80;;;35.60;41.50;;;;;;6248405;28;20245;-77
2021/08/23 15:31:14;;;;;;;1.08;0.82;;;35.60;41.40;;;;;;6248868;28;20271;-76
2021/08/23 15:34:17;;;;;;;1.20;1.00;;;35.60;41.10;;;;;;6247644;28;20191;-76
2021/08/23 15:37:21;;;;;;;1.23;1.08;;;35.60;41.50;;;;;;6246722;28;20338;-76
2021/08/23 15:40:24;;;;;;;1.15;0.73;;;35.50;41.60;;;;;;6247852;28;20234;-75
2021/08/23 15:43:30;;;;;;;1.27;0.93;;;34.30;41.90;;;;;;6263138;28;20310;-76
2021/08/23 15:46:32;;;;;;;1.25;0.90;;;32.20;44.10;;;;;;6262835;28;20275;-75
2021/08/23 15:49:35;;;;;;;0.88;0.80;;;30.40;46.10;;;;;;6230035;28;20281;-75
2021/08/23 15:52:37;;;;;;;0.93;0.80;;;28.80;49.30;;;;;;6246243;28;20295;-74
2021/08/23 15:55:40;;;;;;;2.53;0.88;;;27.20;51.00;;;;;;6246934;28;20271;-76
2021/08/23 15:58:42;;;;;;;1.08;0.90;;;26.20;53.10;;;;;;6229727;28;20301;-74